sensor_id;sensor_type;location;lat;lon;timestamp;pressure;altitude;pressure_sealevel;temperature;humidity
14120;BME280;7138;49.246;9.100;2022-12-10T00:01:34;97592.81;;;4.21;90.59
14120;BME280;7138;49.246;9.100;2022-12-10T00:04:03;97597.09;;;4.24;90.71
14120;BME280;7138;49.246;9.100;2022-12-10T00:06:32;97592.81;;;4.26;90.57
14120;BME280;7138;49.246;9.100;2022-12-10T00:08:59;97597.94;;;4.21;91.02
14120;BME280;7138;49.246;9.100;2022-12-10T00:11:26;97592.84;;;4.24;90.60
14120;BME280;7138;49.246;9.100;2022-12-10T00:13:53;97593.69;;;4.26;90.79
14120;BME280;7138;49.246;9.100;2022-12-10T00:16:21;97595.41;;;4.27;90.80
14120;BME280;7138;49.246;9.100;2022-12-10T00:18:48;97590.25;;;4.26;90.56
14120;BME280;7138;49.246;9.100;2022-12-10T00:21:20;97595.38;;;4.21;90.51
14120;BME280;7138;49.246;9.100;2022-12-10T00:23:47;97590.19;;;4.14;90.42
14120;BME280;7138;49.246;9.100;2022-12-10T00:26:17;97591.88;;;4.09;90.50
14120;BME280;7138;49.246;9.100;2022-12-10T00:28:44;97593.56;;;4.05;90.87
14120;BME280;7138;49.246;9.100;2022-12-10T00:31:14;97607.19;;;4.06;90.71
14120;BME280;7138;49.246;9.100;2022-12-10T00:33:41;97592.72;;;4.06;90.82
14120;BME280;7138;49.246;9.100;2022-12-10T00:36:12;97604.63;;;4.03;91.24
14120;BME280;7138;49.246;9.100;2022-12-10T00:38:41;97614.00;;;4.05;90.47
14120;BME280;7138;49.246;9.100;2022-12-10T00:41:07;97603.81;;;4.07;90.80
14120;BME280;7138;49.246;9.100;2022-12-10T00:43:34;97602.94;;;4.06;90.69
14120;BME280;7138;49.246;9.100;2022-12-10T00:46:00;97608.94;;;4.10;90.21
14120;BME280;7138;49.246;9.100;2022-12-10T00:48:26;97609.78;;;4.09;90.14
14120;BME280;7138;49.246;9.100;2022-12-10T00:50:57;97613.19;;;4.11;90.32
14120;BME280;7138;49.246;9.100;2022-12-10T00:53:24;97616.63;;;4.10;90.70
14120;BME280;7138;49.246;9.100;2022-12-10T00:55:52;97616.59;;;4.11;90.30
14120;BME280;7138;49.246;9.100;2022-12-10T00:58:19;97599.50;;;4.01;90.34
14120;BME280;7138;49.246;9.100;2022-12-10T01:00:45;97614.91;;;4.07;90.35
14120;BME280;7138;49.246;9.100;2022-12-10T01:03:11;97608.00;;;4.00;90.40
14120;BME280;7138;49.246;9.100;2022-12-10T01:05:37;97625.09;;;4.01;90.32
14120;BME280;7138;49.246;9.100;2022-12-10T01:08:04;97621.63;;;3.99;90.95
14120;BME280;7138;49.246;9.100;2022-12-10T01:10:30;97621.66;;;4.02;90.57
14120;BME280;7138;49.246;9.100;2022-12-10T01:12:57;97634.47;;;4.04;90.74
14120;BME280;7138;49.246;9.100;2022-12-10T01:15:23;97628.47;;;4.00;90.57
14120;BME280;7138;49.246;9.100;2022-12-10T01:17:49;97619.09;;;3.98;90.70
14120;BME280;7138;49.246;9.100;2022-12-10T01:20:15;97631.03;;;4.00;90.21
14120;BME280;7138;49.246;9.100;2022-12-10T01:22:40;97631.88;;;4.02;90.55
14120;BME280;7138;49.246;9.100;2022-12-10T01:25:08;97627.63;;;4.01;90.77
14120;BME280;7138;49.246;9.100;2022-12-10T01:27:33;97633.56;;;3.97;90.45
14120;BME280;7138;49.246;9.100;2022-12-10T01:30:01;97639.50;;;3.96;90.69
14120;BME280;7138;49.246;9.100;2022-12-10T01:32:27;97635.28;;;3.98;90.77
14120;BME280;7138;49.246;9.100;2022-12-10T01:34:53;97642.94;;;3.97;90.93
14120;BME280;7138;49.246;9.100;2022-12-10T01:37:18;97644.63;;;3.96;91.12
14120;BME280;7138;49.246;9.100;2022-12-10T01:39:44;97639.50;;;3.95;90.96
14120;BME280;7138;49.246;9.100;2022-12-10T01:42:13;97640.41;;;3.98;91.23
14120;BME280;7138;49.246;9.100;2022-12-10T01:45:09;97641.19;;;3.96;90.89
14120;BME280;7138;49.246;9.100;2022-12-10T01:47:37;97643.75;;;3.96;91.23
14120;BME280;7138;49.246;9.100;2022-12-10T01:50:05;97650.56;;;3.92;91.17
14120;BME280;7138;49.246;9.100;2022-12-10T01:52:32;97648.84;;;3.93;91.18
14120;BME280;7138;49.246;9.100;2022-12-10T01:54:57;97646.28;;;3.93;91.16
14120;BME280;7138;49.246;9.100;2022-12-10T01:57:26;97654.00;;;3.97;91.20
14120;BME280;7138;49.246;9.100;2022-12-10T01:59:57;97657.44;;;3.99;91.40
14120;BME280;7138;49.246;9.100;2022-12-10T02:02:36;97665.16;;;4.04;91.28
14120;BME280;7138;49.246;9.100;2022-12-10T02:05:20;97660.06;;;4.07;90.75
14120;BME280;7138;49.246;9.100;2022-12-10T02:08:02;97668.63;;;4.10;90.63
14120;BME280;7138;49.246;9.100;2022-12-10T02:10:45;97662.63;;;4.08;90.86
14120;BME280;7138;49.246;9.100;2022-12-10T02:13:24;97671.16;;;4.07;91.21
14120;BME280;7138;49.246;9.100;2022-12-10T02:16:02;97669.44;;;4.06;91.11
14120;BME280;7138;49.246;9.100;2022-12-10T02:18:35;97665.16;;;4.04;91.11
14120;BME280;7138;49.246;9.100;2022-12-10T02:21:12;97645.44;;;3.89;91.10
14120;BME280;7138;49.246;9.100;2022-12-10T02:23:44;97665.97;;;4.00;91.05
14120;BME280;7138;49.246;9.100;2022-12-10T02:26:20;97667.66;;;3.98;91.42
14120;BME280;7138;49.246;9.100;2022-12-10T02:29:01;97659.13;;;3.97;91.63
14120;BME280;7138;49.246;9.100;2022-12-10T02:31:33;97656.56;;;3.97;91.38
14120;BME280;7138;49.246;9.100;2022-12-10T02:34:02;97649.75;;;3.99;91.66
14120;BME280;7138;49.246;9.100;2022-12-10T02:36:36;97647.22;;;4.02;91.63
14120;BME280;7138;49.246;9.100;2022-12-10T02:39:08;97647.22;;;4.01;91.71
14120;BME280;7138;49.246;9.100;2022-12-10T02:41:42;97647.22;;;3.98;91.32
14120;BME280;7138;49.246;9.100;2022-12-10T02:44:14;97649.72;;;3.92;91.14
14120;BME280;7138;49.246;9.100;2022-12-10T02:46:44;97654.78;;;3.87;91.66
14120;BME280;7138;49.246;9.100;2022-12-10T02:49:13;97652.22;;;3.87;91.32
14120;BME280;7138;49.246;9.100;2022-12-10T02:51:40;97644.53;;;3.87;91.48
14120;BME280;7138;49.246;9.100;2022-12-10T02:54:34;97646.25;;;3.85;91.47
14120;BME280;7138;49.246;9.100;2022-12-10T02:57:11;97646.19;;;3.79;91.49
14120;BME280;7138;49.246;9.100;2022-12-10T02:59:58;97641.88;;;3.75;91.45
14120;BME280;7138;49.246;9.100;2022-12-10T03:02:38;97637.63;;;3.75;91.76
14120;BME280;7138;49.246;9.100;2022-12-10T03:05:15;97635.09;;;3.77;92.49
14120;BME280;7138;49.246;9.100;2022-12-10T03:07:50;97639.38;;;3.79;91.77
14120;BME280;7138;49.246;9.100;2022-12-10T03:10:28;97635.13;;;3.83;92.24
14120;BME280;7138;49.246;9.100;2022-12-10T03:12:59;97643.63;;;3.80;91.83
14120;BME280;7138;49.246;9.100;2022-12-10T03:15:30;97640.19;;;3.77;91.97
14120;BME280;7138;49.246;9.100;2022-12-10T03:18:01;97633.38;;;3.76;91.76
14120;BME280;7138;49.246;9.100;2022-12-10T03:20:30;97634.28;;;3.79;92.04
14120;BME280;7138;49.246;9.100;2022-12-10T03:22:57;97630.88;;;3.82;91.86
14120;BME280;7138;49.246;9.100;2022-12-10T03:25:27;97628.31;;;3.82;91.32
14120;BME280;7138;49.246;9.100;2022-12-10T03:27:56;97634.25;;;3.78;91.59
14120;BME280;7138;49.246;9.100;2022-12-10T03:30:24;97632.53;;;3.77;91.36
14120;BME280;7138;49.246;9.100;2022-12-10T03:32:52;97623.16;;;3.76;91.91
14120;BME280;7138;49.246;9.100;2022-12-10T03:35:22;97619.75;;;3.75;91.62
14120;BME280;7138;49.246;9.100;2022-12-10T03:37:50;97613.78;;;3.78;91.37
14120;BME280;7138;49.246;9.100;2022-12-10T03:40:21;97619.88;;;3.89;91.62
14120;BME280;7138;49.246;9.100;2022-12-10T03:42:47;97618.16;;;3.88;91.49
14120;BME280;7138;49.246;9.100;2022-12-10T03:45:13;97613.91;;;3.89;91.14
14120;BME280;7138;49.246;9.100;2022-12-10T03:47:39;97615.56;;;3.86;91.41
14120;BME280;7138;49.246;9.100;2022-12-10T03:50:08;97617.25;;;3.86;91.25
14120;BME280;7138;49.246;9.100;2022-12-10T03:52:34;97626.63;;;3.84;90.74
14120;BME280;7138;49.246;9.100;2022-12-10T03:55:01;97627.47;;;3.83;90.73
14120;BME280;7138;49.246;9.100;2022-12-10T03:57:27;97625.75;;;3.79;91.34
14120;BME280;7138;49.246;9.100;2022-12-10T03:59:52;97635.94;;;3.77;91.29
14120;BME280;7138;49.246;9.100;2022-12-10T04:02:18;97635.94;;;3.76;91.05
14120;BME280;7138;49.246;9.100;2022-12-10T04:04:44;97645.31;;;3.77;91.28
14120;BME280;7138;49.246;9.100;2022-12-10T04:07:12;97636.81;;;3.78;91.38
14120;BME280;7138;49.246;9.100;2022-12-10T04:09:38;97641.06;;;3.76;91.26
14120;BME280;7138;49.246;9.100;2022-12-10T04:12:05;97642.75;;;3.77;91.27
14120;BME280;7138;49.246;9.100;2022-12-10T04:14:31;97646.16;;;3.77;90.88
14120;BME280;7138;49.246;9.100;2022-12-10T04:17:16;97650.41;;;3.77;91.16
14120;BME280;7138;49.246;9.100;2022-12-10T04:19:42;97644.41;;;3.70;91.41
14120;BME280;7138;49.246;9.100;2022-12-10T04:22:08;97640.97;;;3.67;91.20
14120;BME280;7138;49.246;9.100;2022-12-10T04:24:54;97644.34;;;3.63;91.23
14120;BME280;7138;49.246;9.100;2022-12-10T04:27:39;97654.56;;;3.63;91.71
14120;BME280;7138;49.246;9.100;2022-12-10T04:30:09;97653.69;;;3.61;91.62
14120;BME280;7138;49.246;9.100;2022-12-10T04:32:36;97657.13;;;3.61;91.66
14120;BME280;7138;49.246;9.100;2022-12-10T04:35:02;97657.13;;;3.63;91.68
14120;BME280;7138;49.246;9.100;2022-12-10T04:37:28;97649.47;;;3.66;91.60
14120;BME280;7138;49.246;9.100;2022-12-10T04:39:56;97658.84;;;3.64;91.22
14120;BME280;7138;49.246;9.100;2022-12-10T04:42:22;97664.78;;;3.63;91.38
14120;BME280;7138;49.246;9.100;2022-12-10T04:44:49;97661.38;;;3.64;91.19
14120;BME280;7138;49.246;9.100;2022-12-10T04:47:15;97658.88;;;3.67;91.54
14120;BME280;7138;49.246;9.100;2022-12-10T04:49:40;97669.94;;;3.67;91.25
14120;BME280;7138;49.246;9.100;2022-12-10T04:52:09;97669.97;;;3.72;91.11
14120;BME280;7138;49.246;9.100;2022-12-10T04:54:35;97668.25;;;3.71;91.24
14120;BME280;7138;49.246;9.100;2022-12-10T04:57:03;97665.69;;;3.71;91.43
14120;BME280;7138;49.246;9.100;2022-12-10T04:59:29;97666.56;;;3.70;91.31
14120;BME280;7138;49.246;9.100;2022-12-10T05:01:54;97658.88;;;3.67;91.33
14120;BME280;7138;49.246;9.100;2022-12-10T05:04:20;97660.53;;;3.65;91.73
14120;BME280;7138;49.246;9.100;2022-12-10T05:06:48;97664.75;;;3.60;91.52
14120;BME280;7138;49.246;9.100;2022-12-10T05:09:16;97674.09;;;3.59;92.41
14120;BME280;7138;49.246;9.100;2022-12-10T05:11:45;97667.31;;;3.60;92.12
14120;BME280;7138;49.246;9.100;2022-12-10T05:14:14;97673.28;;;3.62;91.61
14120;BME280;7138;49.246;9.100;2022-12-10T05:16:42;97675.03;;;3.64;91.78
14120;BME280;7138;49.246;9.100;2022-12-10T05:19:09;97678.44;;;3.68;91.85
14120;BME280;7138;49.246;9.100;2022-12-10T05:21:35;97683.63;;;3.72;91.71
14120;BME280;7138;49.246;9.100;2022-12-10T05:24:20;97684.44;;;3.70;91.82
14120;BME280;7138;49.246;9.100;2022-12-10T05:26:46;97689.50;;;3.65;92.42
14120;BME280;7138;49.246;9.100;2022-12-10T05:29:18;97692.88;;;3.61;91.69
14120;BME280;7138;49.246;9.100;2022-12-10T05:31:44;97696.25;;;3.57;92.61
14120;BME280;7138;49.246;9.100;2022-12-10T05:34:10;97696.25;;;3.57;92.79
14120;BME280;7138;49.246;9.100;2022-12-10T05:36:37;97684.16;;;3.43;92.30
14120;BME280;7138;49.246;9.100;2022-12-10T05:39:03;97714.91;;;3.49;92.56
14120;BME280;7138;49.246;9.100;2022-12-10T05:41:33;97706.31;;;3.44;92.64
14120;BME280;7138;49.246;9.100;2022-12-10T05:44:00;97713.97;;;3.42;93.19
14120;BME280;7138;49.246;9.100;2022-12-10T05:46:31;97711.44;;;3.47;93.12
14120;BME280;7138;49.246;9.100;2022-12-10T05:48:59;97714.06;;;3.51;93.42
14120;BME280;7138;49.246;9.100;2022-12-10T05:51:28;97715.81;;;3.55;93.32
14120;BME280;7138;49.246;9.100;2022-12-10T05:53:56;97709.03;;;3.57;93.16
14120;BME280;7138;49.246;9.100;2022-12-10T05:56:24;97708.22;;;3.61;92.79
14120;BME280;7138;49.246;9.100;2022-12-10T05:58:53;97702.22;;;3.59;92.35
14120;BME280;7138;49.246;9.100;2022-12-10T06:01:23;97708.28;;;3.67;92.00
14120;BME280;7138;49.246;9.100;2022-12-10T06:03:50;97715.94;;;3.67;92.56
14120;BME280;7138;49.246;9.100;2022-12-10T06:06:21;97715.97;;;3.70;91.85
14120;BME280;7138;49.246;9.100;2022-12-10T06:08:48;97715.13;;;3.70;91.96
14120;BME280;7138;49.246;9.100;2022-12-10T06:11:13;97707.44;;;3.71;91.59
14120;BME280;7138;49.246;9.100;2022-12-10T06:13:39;97711.66;;;3.68;92.17
14120;BME280;7138;49.246;9.100;2022-12-10T06:16:06;97709.94;;;3.65;91.88
14120;BME280;7138;49.246;9.100;2022-12-10T06:18:33;97716.81;;;3.71;91.77
14120;BME280;7138;49.246;9.100;2022-12-10T06:21:03;97724.47;;;3.71;92.21
14120;BME280;7138;49.246;9.100;2022-12-10T06:23:29;97724.47;;;3.69;91.96
14120;BME280;7138;49.246;9.100;2022-12-10T06:25:55;97722.78;;;3.70;91.74
14120;BME280;7138;49.246;9.100;2022-12-10T06:28:21;97721.06;;;3.67;91.29
14120;BME280;7138;49.246;9.100;2022-12-10T06:30:47;97722.72;;;3.65;91.38
14120;BME280;7138;49.246;9.100;2022-12-10T06:33:12;97725.25;;;3.62;91.06
14120;BME280;7138;49.246;9.100;2022-12-10T06:35:38;97735.44;;;3.58;91.61
14120;BME280;7138;49.246;9.100;2022-12-10T06:38:06;97732.03;;;3.59;91.28
14120;BME280;7138;49.246;9.100;2022-12-10T06:40:32;97732.03;;;3.59;91.61
14120;BME280;7138;49.246;9.100;2022-12-10T06:42:57;97729.47;;;3.57;91.23
14120;BME280;7138;49.246;9.100;2022-12-10T06:45:23;97726.94;;;3.62;91.89
14120;BME280;7138;49.246;9.100;2022-12-10T06:47:49;97733.78;;;3.61;91.19
14120;BME280;7138;49.246;9.100;2022-12-10T06:50:15;97739.75;;;3.63;91.57
14120;BME280;7138;49.246;9.100;2022-12-10T06:52:41;97738.88;;;3.61;91.50
14120;BME280;7138;49.246;9.100;2022-12-10T06:55:09;97741.44;;;3.61;91.27
14120;BME280;7138;49.246;9.100;2022-12-10T06:57:34;97754.22;;;3.63;91.92
14120;BME280;7138;49.246;9.100;2022-12-10T07:00:00;97737.16;;;3.62;92.11
14120;BME280;7138;49.246;9.100;2022-12-10T07:02:26;97744.88;;;3.63;91.79
14120;BME280;7138;49.246;9.100;2022-12-10T07:04:52;97744.91;;;3.66;91.61
14120;BME280;7138;49.246;9.100;2022-12-10T07:07:21;97743.19;;;3.67;91.41
14120;BME280;7138;49.246;9.100;2022-12-10T07:09:47;97740.66;;;3.67;91.32
14120;BME280;7138;49.246;9.100;2022-12-10T07:12:14;97738.97;;;3.69;91.34
14120;BME280;7138;49.246;9.100;2022-12-10T07:14:41;97738.13;;;3.70;91.47
14120;BME280;7138;49.246;9.100;2022-12-10T07:17:07;97737.28;;;3.72;91.17
14120;BME280;7138;49.246;9.100;2022-12-10T07:19:32;97731.34;;;3.73;90.63
14120;BME280;7138;49.246;9.100;2022-12-10T07:21:59;97730.50;;;3.73;90.91
14120;BME280;7138;49.246;9.100;2022-12-10T07:24:25;97740.72;;;3.73;90.62
14120;BME280;7138;49.246;9.100;2022-12-10T07:26:51;97748.31;;;3.67;90.55
14120;BME280;7138;49.246;9.100;2022-12-10T07:29:20;97749.91;;;3.57;90.62
14120;BME280;7138;49.246;9.100;2022-12-10T07:31:48;97752.41;;;3.51;90.41
14120;BME280;7138;49.246;9.100;2022-12-10T07:34:15;97748.06;;;3.46;91.53
14120;BME280;7138;49.246;9.100;2022-12-10T07:36:43;97754.00;;;3.45;90.22
14120;BME280;7138;49.246;9.100;2022-12-10T07:39:10;97759.91;;;3.39;90.98
14120;BME280;7138;49.246;9.100;2022-12-10T07:41:43;97760.75;;;3.37;91.34
14120;BME280;7138;49.246;9.100;2022-12-10T07:44:11;97765.81;;;3.35;91.03
14120;BME280;7138;49.246;9.100;2022-12-10T07:46:39;97772.56;;;3.30;90.94
14120;BME280;7138;49.246;9.100;2022-12-10T07:49:05;97781.81;;;3.19;91.53
14120;BME280;7138;49.246;9.100;2022-12-10T07:51:31;97782.63;;;3.18;91.79
14120;BME280;7138;49.246;9.100;2022-12-10T07:53:57;97776.66;;;3.17;91.52
14120;BME280;7138;49.246;9.100;2022-12-10T07:56:24;97786.22;;;3.30;91.49
14120;BME280;7138;49.246;9.100;2022-12-10T07:58:51;97783.69;;;3.35;91.97
14120;BME280;7138;49.246;9.100;2022-12-10T08:01:20;97791.47;;;3.43;91.98
14120;BME280;7138;49.246;9.100;2022-12-10T08:03:49;97795.78;;;3.48;91.44
14120;BME280;7138;49.246;9.100;2022-12-10T08:06:18;97795.88;;;3.56;91.40
14120;BME280;7138;49.246;9.100;2022-12-10T08:08:45;97792.53;;;3.58;90.68
14120;BME280;7138;49.246;9.100;2022-12-10T08:11:13;97796.81;;;3.61;91.36
14120;BME280;7138;49.246;9.100;2022-12-10T08:13:39;97796.00;;;3.68;90.85
14120;BME280;7138;49.246;9.100;2022-12-10T08:16:09;97803.75;;;3.74;89.91
14120;BME280;7138;49.246;9.100;2022-12-10T08:18:36;97792.72;;;3.76;89.93
14120;BME280;7138;49.246;9.100;2022-12-10T08:21:06;97803.00;;;3.79;89.98
14120;BME280;7138;49.246;9.100;2022-12-10T08:23:33;97797.06;;;3.85;89.74
14120;BME280;7138;49.246;9.100;2022-12-10T08:26:03;97797.97;;;3.89;89.41
14120;BME280;7138;49.246;9.100;2022-12-10T08:28:29;97796.28;;;3.91;89.64
14120;BME280;7138;49.246;9.100;2022-12-10T08:30:55;97792.09;;;3.97;89.61
14120;BME280;7138;49.246;9.100;2022-12-10T08:33:21;97792.13;;;4.00;89.70
14120;BME280;7138;49.246;9.100;2022-12-10T08:35:47;97804.16;;;4.07;89.87
14120;BME280;7138;49.246;9.100;2022-12-10T08:38:14;97805.03;;;4.14;89.56
14120;BME280;7138;49.246;9.100;2022-12-10T08:40:40;97805.97;;;4.19;89.68
14120;BME280;7138;49.246;9.100;2022-12-10T08:43:07;97805.16;;;4.24;89.69
14120;BME280;7138;49.246;9.100;2022-12-10T08:45:33;97795.81;;;4.28;88.94
14120;BME280;7138;49.246;9.100;2022-12-10T08:48:00;97813.75;;;4.32;88.87
14120;BME280;7138;49.246;9.100;2022-12-10T08:50:26;97801.84;;;4.34;88.30
14120;BME280;7138;49.246;9.100;2022-12-10T08:52:52;97805.22;;;4.30;87.17
14120;BME280;7138;49.246;9.100;2022-12-10T08:55:19;97808.59;;;4.29;87.69
14120;BME280;7138;49.246;9.100;2022-12-10T08:57:45;97810.31;;;4.30;87.43
14120;BME280;7138;49.246;9.100;2022-12-10T09:00:13;97815.44;;;4.30;87.53
14120;BME280;7138;49.246;9.100;2022-12-10T09:02:39;97806.03;;;4.28;88.05
14120;BME280;7138;49.246;9.100;2022-12-10T09:05:06;97794.03;;;4.21;88.08
14120;BME280;7138;49.246;9.100;2022-12-10T09:07:33;97809.44;;;4.27;88.19
14120;BME280;7138;49.246;9.100;2022-12-10T09:09:59;97809.44;;;4.25;87.98
14120;BME280;7138;49.246;9.100;2022-12-10T09:12:26;97806.84;;;4.22;87.88
14120;BME280;7138;49.246;9.100;2022-12-10T09:14:52;97826.41;;;4.19;87.81
14120;BME280;7138;49.246;9.100;2022-12-10T09:17:18;97821.31;;;4.20;88.07
14120;BME280;7138;49.246;9.100;2022-12-10T09:19:43;97815.34;;;4.21;88.33
14120;BME280;7138;49.246;9.100;2022-12-10T09:22:09;97824.75;;;4.24;88.47
14120;BME280;7138;49.246;9.100;2022-12-10T09:24:35;97827.31;;;4.24;87.54
14120;BME280;7138;49.246;9.100;2022-12-10T09:27:02;97831.53;;;4.20;87.88
14120;BME280;7138;49.246;9.100;2022-12-10T09:29:30;97832.34;;;4.15;87.95
14120;BME280;7138;49.246;9.100;2022-12-10T09:31:55;97834.00;;;4.11;88.45
14120;BME280;7138;49.246;9.100;2022-12-10T09:34:21;97847.69;;;4.13;88.50
14120;BME280;7138;49.246;9.100;2022-12-10T09:36:47;97845.97;;;4.12;88.37
14120;BME280;7138;49.246;9.100;2022-12-10T09:39:14;97832.25;;;4.04;87.98
14120;BME280;7138;49.246;9.100;2022-12-10T09:41:56;97846.00;;;4.15;88.14
14120;BME280;7138;49.246;9.100;2022-12-10T09:44:45;97839.22;;;4.20;89.03
14120;BME280;7138;49.246;9.100;2022-12-10T09:47:13;97847.78;;;4.24;88.91
14120;BME280;7138;49.246;9.100;2022-12-10T09:49:54;97833.31;;;4.27;88.47
14120;BME280;7138;49.246;9.100;2022-12-10T09:52:33;97831.56;;;4.23;88.19
14120;BME280;7138;49.246;9.100;2022-12-10T09:55:05;97832.47;;;4.25;88.09
14120;BME280;7138;49.246;9.100;2022-12-10T09:57:41;97824.84;;;4.31;88.79
14120;BME280;7138;49.246;9.100;2022-12-10T10:00:22;97825.72;;;4.36;88.71
14120;BME280;7138;49.246;9.100;2022-12-10T10:02:49;97826.66;;;4.43;88.73
14120;BME280;7138;49.246;9.100;2022-12-10T10:05:22;97832.66;;;4.48;88.63
14120;BME280;7138;49.246;9.100;2022-12-10T10:07:53;97813.69;;;4.26;88.07
14120;BME280;7138;49.246;9.100;2022-12-10T10:10:26;97822.38;;;4.40;88.56
14120;BME280;7138;49.246;9.100;2022-12-10T10:12:57;97836.81;;;4.34;88.96
14120;BME280;7138;49.246;9.100;2022-12-10T10:15:31;97839.31;;;4.29;88.87
14120;BME280;7138;49.246;9.100;2022-12-10T10:18:02;97838.47;;;4.30;88.77
14120;BME280;7138;49.246;9.100;2022-12-10T10:20:31;97839.31;;;4.28;89.05
14120;BME280;7138;49.246;9.100;2022-12-10T10:22:59;97841.88;;;4.32;89.47
14120;BME280;7138;49.246;9.100;2022-12-10T10:25:26;97844.56;;;4.43;90.25
14120;BME280;7138;49.246;9.100;2022-12-10T10:27:52;97818.97;;;4.43;89.28
14120;BME280;7138;49.246;9.100;2022-12-10T10:30:21;97837.88;;;4.57;89.24
14120;BME280;7138;49.246;9.100;2022-12-10T10:32:51;97849.06;;;4.71;89.55
14120;BME280;7138;49.246;9.100;2022-12-10T10:35:25;97840.59;;;4.77;88.42
14120;BME280;7138;49.246;9.100;2022-12-10T10:37:56;97842.38;;;4.85;89.06
14120;BME280;7138;49.246;9.100;2022-12-10T10:40:27;97845.78;;;4.87;88.27
14120;BME280;7138;49.246;9.100;2022-12-10T10:42:57;97843.25;;;4.86;88.14
14120;BME280;7138;49.246;9.100;2022-12-10T10:45:42;97834.72;;;4.93;88.33
14120;BME280;7138;49.246;9.100;2022-12-10T10:48:17;97839.03;;;4.97;87.68
14120;BME280;7138;49.246;9.100;2022-12-10T10:50:47;97830.56;;;5.06;87.98
14120;BME280;7138;49.246;9.100;2022-12-10T10:53:30;97835.75;;;5.18;88.03
14120;BME280;7138;49.246;9.100;2022-12-10T10:56:04;97833.19;;;5.18;87.08
14120;BME280;7138;49.246;9.100;2022-12-10T10:58:31;97834.94;;;5.22;86.43
14120;BME280;7138;49.246;9.100;2022-12-10T11:01:01;97828.97;;;5.21;86.50
14120;BME280;7138;49.246;9.100;2022-12-10T11:03:34;97832.38;;;5.23;86.10
14120;BME280;7138;49.246;9.100;2022-12-10T11:06:02;97833.25;;;5.27;86.22
14120;BME280;7138;49.246;9.100;2022-12-10T11:08:31;97837.47;;;5.20;84.79
14120;BME280;7138;49.246;9.100;2022-12-10T11:11:03;97840.91;;;5.16;84.89
14120;BME280;7138;49.246;9.100;2022-12-10T11:13:33;97834.09;;;5.23;85.77
14120;BME280;7138;49.246;9.100;2022-12-10T11:16:10;97837.50;;;5.19;84.98
14120;BME280;7138;49.246;9.100;2022-12-10T11:18:41;97839.09;;;5.03;86.32
14120;BME280;7138;49.246;9.100;2022-12-10T11:21:17;97848.53;;;5.12;85.66
14120;BME280;7138;49.246;9.100;2022-12-10T11:23:47;97852.00;;;5.18;85.99
14120;BME280;7138;49.246;9.100;2022-12-10T11:26:46;97846.78;;;5.06;85.87
14120;BME280;7138;49.246;9.100;2022-12-10T11:29:39;97849.31;;;5.02;85.58
14120;BME280;7138;49.246;9.100;2022-12-10T11:32:39;97845.91;;;5.01;85.20
14120;BME280;7138;49.246;9.100;2022-12-10T11:35:19;97853.50;;;4.89;85.86
14120;BME280;7138;49.246;9.100;2022-12-10T11:37:56;97856.91;;;4.88;86.13
14120;BME280;7138;49.246;9.100;2022-12-10T11:40:41;97859.47;;;4.91;85.89
14120;BME280;7138;49.246;9.100;2022-12-10T11:43:42;97855.19;;;4.85;86.18
14120;BME280;7138;49.246;9.100;2022-12-10T11:46:27;97854.31;;;4.85;86.19
14120;BME280;7138;49.246;9.100;2022-12-10T11:49:22;97856.78;;;4.77;86.27
14120;BME280;7138;49.246;9.100;2022-12-10T11:52:02;97856.75;;;4.70;86.07
14120;BME280;7138;49.246;9.100;2022-12-10T11:54:51;97857.63;;;4.75;87.21
14120;BME280;7138;49.246;9.100;2022-12-10T11:57:29;97856.00;;;4.80;87.10
14120;BME280;7138;49.246;9.100;2022-12-10T12:00:02;97859.28;;;4.68;85.69
14120;BME280;7138;49.246;9.100;2022-12-10T12:02:55;97866.94;;;4.64;86.09
14120;BME280;7138;49.246;9.100;2022-12-10T12:05:54;97874.44;;;4.47;85.78
14120;BME280;7138;49.246;9.100;2022-12-10T12:08:36;97869.97;;;4.26;85.89
14120;BME280;7138;49.246;9.100;2022-12-10T12:11:28;97880.22;;;4.26;85.77
14120;BME280;7138;49.246;9.100;2022-12-10T12:14:01;97883.53;;;4.18;85.48
14120;BME280;7138;49.246;9.100;2022-12-10T12:16:37;97888.59;;;4.13;85.84
14120;BME280;7138;49.246;9.100;2022-12-10T12:19:14;97890.31;;;4.14;85.15
14120;BME280;7138;49.246;9.100;2022-12-10T12:21:47;97886.94;;;4.20;85.72
14120;BME280;7138;49.246;9.100;2022-12-10T12:24:21;97880.94;;;4.13;85.04
14120;BME280;7138;49.246;9.100;2022-12-10T12:26:54;97885.09;;;4.04;84.73
14120;BME280;7138;49.246;9.100;2022-12-10T12:29:29;97883.31;;;4.00;85.30
14120;BME280;7138;49.246;9.100;2022-12-10T12:32:01;97881.81;;;4.15;85.61
14120;BME280;7138;49.246;9.100;2022-12-10T12:34:44;97878.38;;;4.13;84.96
14120;BME280;7138;49.246;9.100;2022-12-10T12:37:16;97878.34;;;4.12;84.30
14120;BME280;7138;49.246;9.100;2022-12-10T12:39:54;97880.13;;;4.19;83.84
14120;BME280;7138;49.246;9.100;2022-12-10T12:42:29;97883.56;;;4.21;84.49
14120;BME280;7138;49.246;9.100;2022-12-10T12:45:02;97882.69;;;4.20;84.38
14120;BME280;7138;49.246;9.100;2022-12-10T12:47:40;97884.47;;;4.24;83.50
14120;BME280;7138;49.246;9.100;2022-12-10T12:50:24;97896.31;;;4.18;83.72
14120;BME280;7138;49.246;9.100;2022-12-10T12:52:54;97887.81;;;4.19;83.64
14120;BME280;7138;49.246;9.100;2022-12-10T12:55:32;97891.31;;;4.25;83.48
14120;BME280;7138;49.246;9.100;2022-12-10T12:58:17;97883.75;;;4.39;83.98
14120;BME280;7138;49.246;9.100;2022-12-10T13:00:50;97882.97;;;4.48;85.09
14120;BME280;7138;49.246;9.100;2022-12-10T13:03:32;97883.84;;;4.48;82.68
14120;BME280;7138;49.246;9.100;2022-12-10T13:06:20;97899.16;;;4.44;82.81
14120;BME280;7138;49.246;9.100;2022-12-10T13:08:53;97880.44;;;4.46;83.52
14120;BME280;7138;49.246;9.100;2022-12-10T13:11:35;97890.78;;;4.58;82.80
14120;BME280;7138;49.246;9.100;2022-12-10T13:14:30;97890.00;;;4.67;83.08
14120;BME280;7138;49.246;9.100;2022-12-10T13:17:22;97899.34;;;4.63;81.74
14120;BME280;7138;49.246;9.100;2022-12-10T13:19:51;97898.47;;;4.60;82.67
14120;BME280;7138;49.246;9.100;2022-12-10T13:22:42;97892.44;;;4.55;82.01
14120;BME280;7138;49.246;9.100;2022-12-10T13:25:13;97907.75;;;4.50;81.29
14120;BME280;7138;49.246;9.100;2022-12-10T13:27:42;97905.22;;;4.52;82.44
14120;BME280;7138;49.246;9.100;2022-12-10T13:30:34;97907.81;;;4.56;82.00
14120;BME280;7138;49.246;9.100;2022-12-10T13:33:18;97911.22;;;4.55;81.16
14120;BME280;7138;49.246;9.100;2022-12-10T13:35:57;97913.78;;;4.57;82.21
14120;BME280;7138;49.246;9.100;2022-12-10T13:38:26;97932.59;;;4.59;82.89
14120;BME280;7138;49.246;9.100;2022-12-10T13:41:00;97933.38;;;4.52;80.61
14120;BME280;7138;49.246;9.100;2022-12-10T13:43:57;97944.44;;;4.51;80.10